createdAt,value
2023-04-17T00:00:35.815Z,100011.86
2023-04-17T00:03:04.516Z,100004.75
2023-04-17T00:05:34.026Z,100003.77
2023-04-17T00:08:04.850Z,100003.36
2023-04-17T00:10:33.331Z,100002.98
2023-04-17T00:13:03.859Z,100004.04
2023-04-17T00:15:33.268Z,100010.23
2023-04-17T00:18:02.709Z,100009.93
2023-04-17T00:20:31.378Z,100010.73
2023-04-17T00:23:00.045Z,100010.70
2023-04-17T00:25:28.424Z,100008.57
2023-04-17T00:27:57.418Z,100010.77
2023-04-17T00:30:25.908Z,100009.16
2023-04-17T00:32:55.782Z,100007.71
2023-04-17T00:35:24.813Z,100008.40
2023-04-17T00:37:53.194Z,100005.91
2023-04-17T00:40:21.885Z,100007.20
2023-04-17T00:42:53.541Z,100001.77
2023-04-17T00:45:22.507Z,100003.58
2023-04-17T00:47:51.050Z,99999.60
2023-04-17T00:50:19.323Z,99999.23
2023-04-17T00:52:48.799Z,99999.47
2023-04-17T00:55:17.617Z,99995.42
2023-04-17T00:57:46.381Z,99986.20
2023-04-17T01:00:18.493Z,99992.66
2023-04-17T01:02:47.574Z,99992.16
2023-04-17T01:05:16.431Z,99989.65
2023-04-17T01:07:45.236Z,99990.67
2023-04-17T01:10:13.601Z,99988.85
2023-04-17T01:12:46.819Z,99988.48
2023-04-17T01:15:15.785Z,99986.25
2023-04-17T01:17:44.211Z,99990.16
2023-04-17T01:20:13.810Z,99991.83
2023-04-17T01:22:43.285Z,99995.28
2023-04-17T01:25:11.657Z,99994.27
2023-04-17T01:27:42.394Z,99991.08
2023-04-17T01:30:12.149Z,99992.02
2023-04-17T01:32:50.433Z,99995.51
2023-04-17T01:35:19.004Z,99998.49
2023-04-17T01:37:49.126Z,100000.81
2023-04-17T01:40:18.733Z,99998.81
2023-04-17T01:42:47.212Z,99999.41
2023-04-17T01:45:18.154Z,99990.74
2023-04-17T01:47:47.624Z,99996.40
2023-04-17T01:50:16.245Z,99999.61
2023-04-17T01:52:45.549Z,99991.54
2023-04-17T01:55:14.432Z,100001.02
2023-04-17T01:57:42.933Z,100001.19
2023-04-17T02:00:11.850Z,99999.39
2023-04-17T02:02:44.665Z,100004.55
2023-04-17T02:05:13.176Z,99999.87
2023-04-17T02:07:42.990Z,100001.92
2023-04-17T02:10:11.784Z,99997.38
2023-04-17T02:12:40.892Z,99996.91
2023-04-17T02:15:09.948Z,99996.19
2023-04-17T02:17:38.621Z,99990.92
2023-04-17T02:20:07.766Z,99995.58
2023-04-17T02:22:36.957Z,99996.73
2023-04-17T02:25:06.053Z,99997.15
2023-04-17T02:27:34.536Z,99999.59
2023-04-17T02:30:04.038Z,100003.42
2023-04-17T02:32:33.966Z,100005.67
2023-04-17T02:35:02.843Z,100005.77
2023-04-17T02:37:31.739Z,100001.17
2023-04-17T02:40:00.214Z,100001.27
2023-04-17T02:42:28.909Z,100000.33
2023-04-17T02:44:57.291Z,100002.53
2023-04-17T02:47:25.981Z,100004.52
2023-04-17T02:49:55.992Z,100009.24
2023-04-17T02:52:24.373Z,100006.45
2023-04-17T02:54:52.900Z,100010.24
2023-04-17T02:57:21.335Z,100010.01
2023-04-17T02:59:50.527Z,100010.58
2023-04-17T03:02:22.352Z,100010.45
2023-04-17T03:04:51.535Z,100014.46
2023-04-17T03:07:20.903Z,100015.88
2023-04-17T03:09:49.593Z,100018.34
2023-04-17T03:12:18.579Z,100011.52
2023-04-17T03:14:47.064Z,100013.02
2023-04-17T03:17:15.643Z,100014.29
2023-04-17T03:19:44.146Z,100021.80
2023-04-17T03:22:13.435Z,100024.04
2023-04-17T03:24:42.318Z,100025.41
2023-04-17T03:27:13.775Z,100025.59
2023-04-17T03:29:43.179Z,100025.49
2023-04-17T03:32:11.760Z,100027.46
2023-04-17T03:34:40.550Z,100020.02
2023-04-17T03:37:09.029Z,100029.04
2023-04-17T03:39:37.523Z,100029.23
2023-04-17T03:42:06.811Z,100030.42
2023-04-17T03:44:35.397Z,100031.77
2023-04-17T03:47:03.777Z,100034.88
2023-04-17T03:49:32.156Z,100036.33
2023-04-17T03:52:03.913Z,100037.58
2023-04-17T03:54:35.954Z,100040.61
2023-04-17T03:57:06.202Z,100043.41
2023-04-17T03:59:34.885Z,100042.48
2023-04-17T04:02:03.372Z,100043.54
2023-04-17T04:04:35.409Z,100048.11
2023-04-17T04:07:08.623Z,100047.21
2023-04-17T04:09:37.312Z,100048.14
2023-04-17T04:12:06.104Z,100052.96
2023-04-17T04:14:41.784Z,100054.00
2023-04-17T04:17:11.052Z,100060.82
2023-04-17T04:19:39.731Z,100060.02
2023-04-17T04:22:09.033Z,100059.05
2023-04-17T04:24:43.048Z,100064.17
2023-04-17T04:27:14.358Z,100062.38
2023-04-17T04:29:48.918Z,100062.73
2023-04-17T04:32:20.930Z,100061.89
2023-04-17T04:34:49.464Z,100068.02
2023-04-17T04:37:22.062Z,100066.19
2023-04-17T04:39:54.402Z,100066.80
2023-04-17T04:42:24.234Z,100067.60
2023-04-17T04:45:05.110Z,100067.15
2023-04-17T04:47:34.003Z,100066.33
2023-04-17T04:50:02.664Z,100068.98
2023-04-17T04:52:32.187Z,100067.90
2023-04-17T04:55:02.151Z,100070.48
2023-04-17T04:57:31.714Z,100071.14
2023-04-17T05:00:02.026Z,100072.64
2023-04-17T05:02:38.002Z,100070.66
2023-04-17T05:05:09.810Z,100072.61
2023-04-17T05:07:38.650Z,100074.66
2023-04-17T05:10:46.681Z,100074.36
2023-04-17T05:13:15.958Z,100078.16
2023-04-17T05:15:44.548Z,100081.61
2023-04-17T05:18:13.639Z,100082.84
2023-04-17T05:20:42.528Z,100089.89
2023-04-17T05:23:11.017Z,100090.83
2023-04-17T05:25:39.394Z,100092.25
2023-04-17T05:28:08.287Z,100098.66
2023-04-17T05:30:36.714Z,100102.14
2023-04-17T05:33:12.845Z,100103.06
2023-04-17T05:35:56.003Z,100107.83
2023-04-17T05:38:25.672Z,100107.91
2023-04-17T05:40:54.256Z,100113.41
2023-04-17T05:43:23.244Z,100107.69
2023-04-17T05:45:53.961Z,100112.31
2023-04-17T05:48:22.322Z,100109.95
2023-04-17T05:50:50.941Z,100108.79
2023-04-17T05:53:20.251Z,100114.88
2023-04-17T05:55:54.871Z,100111.73
2023-04-17T05:58:24.489Z,100111.88
2023-04-17T06:00:57.176Z,100108.60
2023-04-17T06:03:28.161Z,100113.72
2023-04-17T06:06:05.817Z,100116.89
2023-04-17T06:08:34.421Z,100109.69
2023-04-17T06:11:02.689Z,100121.65
2023-04-17T06:13:31.556Z,100118.55
2023-04-17T06:16:00.147Z,100120.77
2023-04-17T06:18:28.521Z,100121.05
2023-04-17T06:20:57.100Z,100121.77
2023-04-17T06:23:26.411Z,100115.74
2023-04-17T06:25:54.731Z,100121.98
2023-04-17T06:28:23.267Z,100123.55
2023-04-17T06:30:53.087Z,100124.69
2023-04-17T06:33:21.567Z,100122.21
2023-04-17T06:35:50.148Z,100119.86
2023-04-17T06:38:25.415Z,100122.10
2023-04-17T06:40:53.974Z,100120.08
2023-04-17T06:43:22.764Z,100120.08
2023-04-17T06:45:51.327Z,100124.15
2023-04-17T06:48:19.932Z,100125.13
2023-04-17T06:50:48.688Z,100128.77
2023-04-17T06:53:17.099Z,100132.70
2023-04-17T06:55:45.690Z,100136.60
2023-04-17T06:58:14.269Z,100136.23
2023-04-17T07:00:42.643Z,100142.14
2023-04-17T07:03:11.639Z,100141.55
2023-04-17T07:05:40.047Z,100136.83
2023-04-17T07:08:08.603Z,100139.13
2023-04-17T07:10:37.695Z,100139.21
2023-04-17T07:13:06.305Z,100134.23
2023-04-17T07:15:34.788Z,100138.43
2023-04-17T07:18:03.428Z,100136.78
2023-04-17T07:20:31.942Z,100133.23
2023-04-17T07:23:00.313Z,100134.78
2023-04-17T07:25:28.902Z,100135.30
2023-04-17T07:27:57.685Z,100132.36
2023-04-17T07:30:26.403Z,100135.69
2023-04-17T07:32:55.094Z,100130.48
2023-04-17T07:35:23.750Z,100137.98
2023-04-17T07:37:52.231Z,100135.69
2023-04-17T07:40:20.604Z,100132.59
2023-04-17T07:42:49.186Z,100130.50
2023-04-17T07:45:17.668Z,100134.70
2023-04-17T07:47:46.730Z,100135.50
2023-04-17T07:50:15.763Z,100135.79
2023-04-17T07:52:44.136Z,100135.58
2023-04-17T07:55:12.517Z,100135.13
2023-04-17T07:57:43.968Z,100134.37
2023-04-17T08:00:16.474Z,100134.70
2023-04-17T08:02:45.029Z,100136.02
2023-04-17T08:05:13.548Z,100136.85
2023-04-17T08:07:43.634Z,100138.15
2023-04-17T08:10:12.012Z,100135.20
2023-04-17T08:12:40.587Z,100128.56
2023-04-17T08:15:09.825Z,100133.67
2023-04-17T08:17:38.577Z,100134.82
2023-04-17T08:20:11.654Z,100134.81
2023-04-17T08:22:41.222Z,100134.95
2023-04-17T08:25:10.473Z,100129.99
2023-04-17T08:27:42.627Z,100130.27
2023-04-17T08:30:13.868Z,100129.79
2023-04-17T08:32:46.762Z,100130.64
2023-04-17T08:35:15.771Z,100131.44
2023-04-17T08:37:47.224Z,100124.99
2023-04-17T08:40:17.442Z,100126.10
2023-04-17T08:42:48.251Z,100127.30
2023-04-17T08:45:17.592Z,100120.96
2023-04-17T08:47:47.430Z,100113.27
2023-04-17T08:50:19.563Z,100112.77
2023-04-17T08:52:49.177Z,100111.02
2023-04-17T08:55:22.472Z,100110.35
2023-04-17T08:58:04.287Z,100111.84
2023-04-17T09:00:51.282Z,100109.45
2023-04-17T09:03:20.089Z,100109.30
2023-04-17T09:05:49.399Z,100110.67
2023-04-17T09:08:22.448Z,100110.15
2023-04-17T09:10:52.100Z,100107.40
2023-04-17T09:13:25.562Z,100102.95
2023-04-17T09:16:11.113Z,100102.82
2023-04-17T09:18:40.473Z,100083.19
2023-04-17T09:21:09.244Z,100099.76
2023-04-17T09:23:55.652Z,100100.25
2023-04-17T09:26:27.632Z,100099.41
2023-04-17T09:29:12.356Z,100100.28
2023-04-17T09:31:43.073Z,100100.73
2023-04-17T09:34:12.898Z,100097.81
2023-04-17T09:36:42.303Z,100099.85
2023-04-17T09:39:19.349Z,100101.25
2023-04-17T09:41:47.783Z,100098.70
2023-04-17T09:44:25.888Z,100101.64
2023-04-17T09:46:54.602Z,100094.40
2023-04-17T09:49:30.543Z,100092.38
2023-04-17T09:51:58.921Z,100092.34
2023-04-17T09:54:31.607Z,100088.57
2023-04-17T09:57:00.207Z,100089.68
2023-04-17T09:59:28.828Z,100090.75
2023-04-17T10:01:57.533Z,100090.84
2023-04-17T10:04:26.395Z,100090.06
2023-04-17T10:06:56.972Z,100086.75
2023-04-17T10:09:25.360Z,100083.44
2023-04-17T10:11:54.148Z,100087.95
2023-04-17T10:14:31.004Z,100085.85
2023-04-17T10:16:59.291Z,100086.50
2023-04-17T10:19:36.805Z,100079.61
2023-04-17T10:22:20.501Z,100076.45
2023-04-17T10:24:52.183Z,100069.06
2023-04-17T10:27:27.274Z,100069.23
2023-04-17T10:30:02.884Z,100069.81
2023-04-17T10:32:32.154Z,100065.43
2023-04-17T10:35:02.251Z,100070.75
2023-04-17T10:37:51.891Z,100063.87
2023-04-17T10:40:29.615Z,100066.11
2023-04-17T10:43:08.590Z,100066.34
2023-04-17T10:46:03.564Z,100061.75
2023-04-17T10:48:39.369Z,100059.21
2023-04-17T10:51:29.436Z,100059.64
2023-04-17T10:53:58.226Z,100060.48
2023-04-17T10:56:28.064Z,100059.83
2023-04-17T10:59:00.315Z,100063.23
2023-04-17T11:01:32.462Z,100069.80
2023-04-17T11:04:01.025Z,100068.58
2023-04-17T11:06:32.061Z,100070.12
2023-04-17T11:09:00.517Z,100070.68
2023-04-17T11:11:40.447Z,100074.04
2023-04-17T11:14:15.783Z,100072.88
2023-04-17T11:16:46.224Z,100084.02
2023-04-17T11:19:21.705Z,100080.93
2023-04-17T11:21:54.211Z,100075.92
2023-04-17T11:24:26.936Z,100077.46
2023-04-17T11:26:56.833Z,100075.55
2023-04-17T11:29:25.623Z,100064.21
2023-04-17T11:31:55.046Z,100064.21
2023-04-17T11:34:23.608Z,100064.77
2023-04-17T11:36:56.898Z,100064.95
2023-04-17T11:39:26.675Z,100061.84
2023-04-17T11:41:57.328Z,100064.23
2023-04-17T11:44:26.142Z,100064.04
2023-04-17T11:46:56.024Z,100066.62
2023-04-17T11:49:31.300Z,100060.77
2023-04-17T11:52:00.801Z,100063.22
2023-04-17T11:54:30.840Z,100060.70
2023-04-17T11:57:02.719Z,100056.02
2023-04-17T11:59:38.665Z,100052.63
2023-04-17T12:02:07.692Z,100047.51
2023-04-17T12:04:37.848Z,100045.50
2023-04-17T12:07:07.574Z,100045.46
2023-04-17T12:09:36.774Z,100042.08
2023-04-17T12:12:06.685Z,100044.21
2023-04-17T12:14:36.297Z,100044.02
2023-04-17T12:17:04.670Z,100044.35
2023-04-17T12:19:34.085Z,100037.73
2023-04-17T12:22:02.567Z,100039.06
2023-04-17T12:24:31.061Z,100037.39
2023-04-17T12:27:02.059Z,100042.66
2023-04-17T12:29:43.278Z,100041.98
2023-04-17T12:32:13.119Z,100042.67
2023-04-17T12:34:41.557Z,100033.23
2023-04-17T12:37:10.240Z,100030.13
2023-04-17T12:39:38.831Z,100026.96
2023-04-17T12:42:07.206Z,100027.86
2023-04-17T12:44:35.907Z,100024.40
2023-04-17T12:47:04.371Z,100022.38
2023-04-17T12:49:33.176Z,100027.56
2023-04-17T12:52:03.557Z,100022.61
2023-04-17T12:54:33.352Z,100017.10
2023-04-17T12:57:02.589Z,100015.70
2023-04-17T12:59:32.314Z,100016.86
2023-04-17T13:02:01.454Z,100014.55
2023-04-17T13:04:30.344Z,100011.20
2023-04-17T13:06:58.890Z,100006.92
2023-04-17T13:09:27.265Z,100013.70
2023-04-17T13:11:55.644Z,100014.21
2023-04-17T13:14:24.232Z,100014.51
2023-04-17T13:16:52.831Z,100007.83
2023-04-17T13:19:21.420Z,100009.98
2023-04-17T13:21:51.521Z,99997.80
2023-04-17T13:24:19.901Z,100005.64
2023-04-17T13:26:48.379Z,100002.48
2023-04-17T13:29:19.277Z,100003.88
2023-04-17T13:31:48.937Z,99996.73
2023-04-17T13:34:17.412Z,99998.25
2023-04-17T13:36:46.800Z,100000.91
2023-04-17T13:39:15.392Z,100003.20
2023-04-17T13:41:43.799Z,100010.80
2023-04-17T13:44:13.839Z,100004.39
2023-04-17T13:46:42.232Z,100006.33
2023-04-17T13:49:12.088Z,100003.11
2023-04-17T13:51:40.900Z,99999.85
2023-04-17T13:54:10.411Z,99997.86
2023-04-17T13:56:39.489Z,99995.76
2023-04-17T13:59:08.275Z,100000.10
2023-04-17T14:01:36.945Z,99998.64
2023-04-17T14:04:05.438Z,99998.25
2023-04-17T14:06:35.272Z,99999.73
2023-04-17T14:09:03.744Z,99999.34
2023-04-17T14:11:32.431Z,99994.13
2023-04-17T14:14:01.018Z,99990.95
2023-04-17T14:16:29.836Z,99993.00
2023-04-17T14:19:06.407Z,99988.52
2023-04-17T14:21:41.831Z,99988.30
2023-04-17T14:24:10.306Z,99989.91
2023-04-17T14:26:40.092Z,99990.23
2023-04-17T14:29:11.056Z,99988.56
2023-04-17T14:31:39.614Z,99987.98
2023-04-17T14:34:08.025Z,99988.42
2023-04-17T14:36:36.508Z,99984.79
2023-04-17T14:39:08.577Z,99986.27
2023-04-17T14:41:37.216Z,99981.83
2023-04-17T14:44:05.870Z,99980.05
2023-04-17T14:46:34.646Z,99980.77
2023-04-17T14:49:03.536Z,99976.58
2023-04-17T14:51:32.546Z,99978.08
2023-04-17T14:54:01.441Z,99976.84
2023-04-17T14:56:30.207Z,99970.06
2023-04-17T14:58:58.691Z,99972.79
2023-04-17T15:01:27.140Z,99974.36
2023-04-17T15:03:56.146Z,99971.47
2023-04-17T15:06:24.754Z,99969.16
2023-04-17T15:08:53.341Z,99967.11
2023-04-17T15:11:21.825Z,99964.38
2023-04-17T15:13:50.510Z,99966.91
2023-04-17T15:16:19.053Z,99965.13
2023-04-17T15:18:47.577Z,99966.58
2023-04-17T15:21:16.572Z,99967.66
2023-04-17T15:23:45.157Z,99966.52
2023-04-17T15:26:13.763Z,99957.44
2023-04-17T15:28:42.338Z,99965.97
2023-04-17T15:31:10.716Z,99969.69
2023-04-17T15:33:39.206Z,99972.19
2023-04-17T15:36:07.683Z,99968.93
2023-04-17T15:38:36.570Z,99968.14
2023-04-17T15:41:05.672Z,99966.34
2023-04-17T15:43:34.051Z,99966.64
2023-04-17T15:46:03.732Z,99966.55
2023-04-17T15:48:32.347Z,99970.34
2023-04-17T15:51:03.079Z,99968.95
2023-04-17T15:53:32.046Z,99966.13
2023-04-17T15:56:00.968Z,99968.54
2023-04-17T15:58:29.754Z,99969.70
2023-04-17T16:00:58.237Z,99968.89
2023-04-17T16:03:26.970Z,99969.80
2023-04-17T16:05:55.614Z,99970.02
2023-04-17T16:08:23.993Z,99973.05
2023-04-17T16:10:52.678Z,99972.79
2023-04-17T16:13:21.572Z,99974.09
2023-04-17T16:15:50.815Z,99976.41
2023-04-17T16:18:19.252Z,99976.23
2023-04-17T16:20:47.735Z,99977.10
2023-04-17T16:23:16.216Z,99979.45
2023-04-17T16:25:44.708Z,99980.09
2023-04-17T16:28:13.076Z,99983.29
2023-04-17T16:30:41.560Z,99975.54
2023-04-17T16:33:10.046Z,99984.23
2023-04-17T16:35:38.732Z,99986.72
2023-04-17T16:38:07.229Z,99984.00
2023-04-17T16:40:36.105Z,99987.25
2023-04-17T16:43:04.484Z,99990.48
2023-04-17T16:45:33.169Z,99989.34
2023-04-17T16:48:01.687Z,99987.50
2023-04-17T16:50:31.056Z,99985.30
2023-04-17T16:52:59.643Z,99986.05
2023-04-17T16:55:28.121Z,99981.81
2023-04-17T16:57:57.629Z,99986.23
2023-04-17T17:00:26.521Z,99988.91
2023-04-17T17:02:55.121Z,99985.94
2023-04-17T17:05:24.527Z,99985.90
2023-04-17T17:07:53.303Z,99991.43
2023-04-17T17:10:21.575Z,99991.23
2023-04-17T17:12:49.960Z,99993.27
2023-04-17T17:15:20.723Z,99998.98
2023-04-17T17:17:49.839Z,99993.14
2023-04-17T17:20:19.398Z,99994.02
2023-04-17T17:22:47.791Z,99994.95
2023-04-17T17:28:14.745Z,100000.02
2023-04-17T17:30:44.163Z,100002.70
2023-04-17T17:33:12.714Z,100006.54
2023-04-17T17:35:41.218Z,100006.34
2023-04-17T17:38:10.949Z,100007.34
2023-04-17T17:40:40.548Z,100004.16
2023-04-17T17:43:08.962Z,100007.23
2023-04-17T17:45:37.316Z,100006.35
2023-04-17T17:48:06.293Z,100010.15
2023-04-17T17:50:34.883Z,100007.84
2023-04-17T17:53:04.312Z,100009.00
2023-04-17T17:55:37.688Z,100008.77
2023-04-17T17:58:07.037Z,100006.03
2023-04-17T18:00:36.182Z,100008.72
2023-04-17T18:03:04.839Z,100008.09
2023-04-17T18:05:33.974Z,100010.58
2023-04-17T18:08:02.559Z,100007.97
2023-04-17T18:10:33.693Z,100003.80
2023-04-17T18:13:03.445Z,100002.20
2023-04-17T18:15:31.825Z,100003.16
2023-04-17T18:18:00.766Z,99999.45
2023-04-17T18:20:29.367Z,99997.80
2023-04-17T18:22:58.061Z,99997.25
2023-04-17T18:25:26.637Z,99997.73
2023-04-17T18:27:54.917Z,99994.02
2023-04-17T18:30:23.293Z,99992.61
2023-04-17T18:32:52.054Z,99993.00
2023-04-17T18:35:20.675Z,99994.35
2023-04-17T18:37:49.159Z,99989.52
2023-04-17T18:40:17.738Z,99991.98
2023-04-17T18:42:46.217Z,99990.16
2023-04-17T18:45:16.261Z,99989.20
2023-04-17T18:47:44.855Z,99989.69
2023-04-17T18:50:13.311Z,99989.19
2023-04-17T18:52:45.074Z,99989.05
2023-04-17T18:55:17.857Z,99990.15
2023-04-17T18:57:47.051Z,99985.78
2023-04-17T19:00:16.141Z,99983.20
2023-04-17T19:02:44.943Z,99971.64
2023-04-17T19:05:13.899Z,99978.80
2023-04-17T19:07:42.405Z,99976.44
2023-04-17T19:10:11.399Z,99978.54
2023-04-17T19:12:39.800Z,99974.49
2023-04-17T19:15:10.049Z,99974.61
2023-04-17T19:17:38.644Z,99971.80
2023-04-17T19:20:08.068Z,99970.19
2023-04-17T19:22:36.680Z,99972.78
2023-04-17T19:25:05.775Z,99971.92
2023-04-17T19:27:35.200Z,99966.11
2023-04-17T19:30:04.392Z,99966.11
2023-04-17T19:32:33.379Z,99965.85
2023-04-17T19:35:01.918Z,99961.80
2023-04-17T19:37:30.740Z,99959.52
2023-04-17T19:39:59.325Z,99956.09
2023-04-17T19:42:29.166Z,99955.70
2023-04-17T19:44:57.516Z,99954.05
2023-04-17T19:47:26.383Z,99954.45
2023-04-17T19:49:54.994Z,99952.33
2023-04-17T19:52:23.881Z,99949.27
2023-04-17T19:54:52.264Z,99954.09
2023-04-17T19:57:20.646Z,99951.52
2023-04-17T19:59:49.018Z,99950.65
2023-04-17T20:02:21.535Z,99949.77
2023-04-17T20:04:49.993Z,99946.89
2023-04-17T20:07:18.357Z,99950.30
2023-04-17T20:09:46.741Z,99950.89
2023-04-17T20:12:15.118Z,99946.16
2023-04-17T20:14:43.598Z,99939.36
2023-04-17T20:17:12.113Z,99941.44
2023-04-17T20:19:41.174Z,99939.56
2023-04-17T20:22:09.656Z,99932.36
2023-04-17T20:24:38.047Z,99932.98
2023-04-17T20:27:06.929Z,99924.55
2023-04-17T20:29:35.617Z,99925.27
2023-04-17T20:32:04.204Z,99923.61
2023-04-17T20:34:35.344Z,99926.48
2023-04-17T20:37:03.721Z,99922.55
2023-04-17T20:39:32.817Z,99920.41
2023-04-17T20:42:02.228Z,99917.34
2023-04-17T20:44:32.240Z,99915.35
2023-04-17T20:47:01.129Z,99919.05
2023-04-17T20:49:30.221Z,99914.42
2023-04-17T20:51:59.628Z,99910.10
2023-04-17T20:54:28.725Z,99909.61
2023-04-17T20:56:57.411Z,99908.23
2023-04-17T20:59:26.102Z,99905.79
2023-04-17T21:01:54.659Z,99908.36
2023-04-17T21:04:23.368Z,99903.16
2023-04-17T21:06:52.055Z,99904.58
2023-04-17T21:09:20.741Z,99905.16
2023-04-17T21:11:49.937Z,99900.67
2023-04-17T21:14:19.038Z,99895.02
2023-04-17T21:16:47.415Z,99893.33
2023-04-17T21:19:15.907Z,99892.11
2023-04-17T21:21:44.289Z,99890.37
2023-04-17T21:24:12.948Z,99885.91
2023-04-17T21:26:41.549Z,99884.09
2023-04-17T21:29:09.927Z,99881.13
2023-04-17T21:31:38.595Z,99882.95
2023-04-17T21:34:07.108Z,99887.20
2023-04-17T21:36:35.683Z,99881.57
2023-04-17T21:39:04.054Z,99881.48
2023-04-17T21:41:32.641Z,99879.70
2023-04-17T21:44:02.871Z,99880.02
2023-04-17T21:46:32.167Z,99878.44
2023-04-17T21:49:01.165Z,99876.20
2023-04-17T21:51:29.641Z,99872.91
2023-04-17T21:53:58.028Z,99872.48
2023-04-17T21:56:26.515Z,99872.83
2023-04-17T21:58:54.881Z,99872.14
2023-04-17T22:01:23.760Z,99870.14
2023-04-17T22:03:52.680Z,99867.23
2023-04-17T22:06:21.048Z,99865.97
2023-04-17T22:08:49.427Z,99866.54
2023-04-17T22:11:18.019Z,99864.55
2023-04-17T22:13:47.311Z,99859.65
2023-04-17T22:16:16.146Z,99859.62
2023-04-17T22:18:44.598Z,99856.68
2023-04-17T22:21:13.430Z,99854.52
2023-04-17T22:23:41.756Z,99852.90
2023-04-17T22:26:10.090Z,99855.34
2023-04-17T22:28:39.846Z,99853.66
2023-04-17T22:31:08.389Z,99847.01
2023-04-17T22:33:36.810Z,99852.67
2023-04-17T22:36:05.495Z,99854.14
2023-04-17T22:38:34.080Z,99850.55
2023-04-17T22:41:04.096Z,99850.25
2023-04-17T22:43:33.093Z,99850.39
2023-04-17T22:46:01.832Z,99849.64
2023-04-17T22:48:30.463Z,99844.73
2023-04-17T22:50:58.846Z,99844.32
2023-04-17T22:53:27.940Z,99845.89
2023-04-17T22:56:03.205Z,99844.91
2023-04-17T22:58:33.183Z,99846.20
2023-04-17T23:01:01.583Z,99835.39
2023-04-17T23:03:30.414Z,99838.84
2023-04-17T23:05:58.744Z,99832.70
2023-04-17T23:08:27.854Z,99838.48
2023-04-17T23:10:59.292Z,99837.34
2023-04-17T23:13:28.198Z,99838.09
2023-04-17T23:15:56.619Z,99836.42
2023-04-17T23:18:25.254Z,99832.42
2023-04-17T23:20:53.841Z,99829.92
2023-04-17T23:23:22.525Z,99830.15
2023-04-17T23:25:51.412Z,99829.02
2023-04-17T23:28:20.204Z,99831.48
2023-04-17T23:30:48.589Z,99829.64
2023-04-17T23:33:17.372Z,99825.85
2023-04-17T23:35:45.855Z,99824.64
2023-04-17T23:38:14.349Z,99822.59
2023-04-17T23:40:42.926Z,99821.38
2023-04-17T23:43:11.205Z,99821.41
2023-04-17T23:45:39.790Z,99819.69
2023-04-17T23:48:08.483Z,99815.37
2023-04-17T23:50:36.860Z,99814.88
2023-04-17T23:53:07.189Z,99811.02
2023-04-17T23:55:35.566Z,99811.11
2023-04-17T23:58:03.945Z,99809.56
